createdAt,value
2022-10-22T00:00:47.617Z,120.20
2022-10-22T00:05:46.850Z,103.70
2022-10-22T00:10:47.104Z,116.90
2022-10-22T00:15:45.303Z,108.50
2022-10-22T00:20:45.495Z,122.60
2022-10-22T00:25:43.773Z,151.20
2022-10-22T00:30:43.052Z,136.60
2022-10-22T00:35:42.685Z,115.80
2022-10-22T00:40:42.480Z,145.80
2022-10-22T00:45:42.042Z,68.10
2022-10-22T00:50:39.817Z,57.80
2022-10-22T00:55:39.076Z,50.90
2022-10-22T01:00:38.299Z,64.60
2022-10-22T01:05:37.512Z,93.50
2022-10-22T01:10:36.725Z,74.70
2022-10-22T01:15:36.058Z,82.70
2022-10-22T01:20:35.241Z,41.70
2022-10-22T01:25:35.444Z,28.20
2022-10-22T01:30:33.621Z,63.00
2022-10-22T01:40:32.088Z,36.90
2022-10-22T01:45:30.311Z,43.70
2022-10-22T01:50:30.948Z,17.40
2022-10-22T01:55:29.787Z,20.70
2022-10-22T02:00:29.031Z,18.10
2022-10-22T02:05:28.265Z,18.00
2022-10-22T02:10:29.453Z,16.00
2022-10-22T02:15:26.924Z,16.80
2022-10-22T02:20:26.978Z,13.90
2022-10-22T02:25:26.162Z,13.30
2022-10-22T02:30:24.339Z,14.90
2022-10-22T02:35:24.558Z,12.80
2022-10-22T02:40:22.747Z,8.60
2022-10-22T02:45:22.255Z,11.50
2022-10-22T02:50:25.375Z,11.70
2022-10-22T02:55:20.655Z,10.00
2022-10-22T03:01:00.920Z,8.90
2022-10-22T03:05:19.079Z,8.90
2022-10-22T03:10:18.438Z,9.30
2022-10-22T03:15:18.707Z,7.70
2022-10-22T03:20:17.067Z,9.20
2022-10-22T03:25:16.550Z,7.30
2022-10-22T03:30:15.351Z,9.60
2022-10-22T03:35:15.651Z,9.20
2022-10-22T03:40:13.889Z,6.40
2022-10-22T03:45:13.622Z,6.20
2022-10-22T03:50:12.565Z,5.10
2022-10-22T03:55:11.871Z,6.70
2022-10-22T04:00:10.872Z,6.90
2022-10-22T04:05:10.167Z,6.30
2022-10-22T04:10:08.354Z,6.90
2022-10-22T04:15:09.580Z,7.80
2022-10-22T04:20:07.981Z,5.00
2022-10-22T04:25:06.969Z,8.20
2022-10-22T04:30:06.306Z,4.00
2022-10-22T04:35:05.403Z,4.50
2022-10-22T04:40:04.621Z,6.40
2022-10-22T04:45:05.126Z,7.20
2022-10-22T04:50:02.436Z,6.00
2022-10-22T04:55:01.693Z,7.00
2022-10-22T05:00:02.938Z,5.40
2022-10-22T05:05:01.023Z,4.40
2022-10-22T05:10:00.362Z,5.90
2022-10-22T05:14:59.399Z,3.90
2022-10-22T05:19:58.548Z,4.30
2022-10-22T05:24:57.698Z,2.80
2022-10-22T05:29:56.923Z,3.60
2022-10-22T05:34:56.092Z,4.50
2022-10-22T05:40:06.483Z,4.50
2022-10-22T05:44:54.537Z,4.20
2022-10-22T05:49:53.674Z,3.80
2022-10-22T05:54:53.280Z,4.40
2022-10-22T05:59:53.255Z,3.00
2022-10-22T06:04:51.392Z,3.00
2022-10-22T06:09:50.550Z,2.30
2022-10-22T06:14:50.858Z,2.20
2022-10-22T06:19:49.182Z,2.70
2022-10-22T06:24:49.044Z,2.90
2022-10-22T06:29:47.808Z,1.80
2022-10-22T06:34:46.961Z,3.40
2022-10-22T06:39:46.543Z,3.00
2022-10-22T06:44:45.219Z,2.10
2022-10-22T06:49:44.521Z,2.80
2022-10-22T06:54:43.920Z,3.20
2022-10-22T06:59:43.041Z,2.70
2022-10-22T07:04:43.386Z,1.10
2022-10-22T07:09:41.864Z,1.80
2022-10-22T07:14:42.069Z,2.30
2022-10-22T07:19:39.800Z,2.40
2022-10-22T07:24:40.524Z,2.50
2022-10-22T07:29:40.840Z,3.50
2022-10-22T07:34:40.558Z,129.40
2022-10-22T07:39:37.421Z,148.70
2022-10-22T07:44:36.652Z,136.40
2022-10-22T07:49:35.744Z,72.00
2022-10-22T07:54:35.062Z,164.60
2022-10-22T07:59:34.386Z,172.80
2022-10-22T08:04:33.724Z,116.80
2022-10-22T08:09:35.010Z,165.50
2022-10-22T08:14:32.284Z,178.10
2022-10-22T08:19:31.581Z,128.60
2022-10-22T08:24:31.851Z,92.60
2022-10-22T08:29:31.168Z,78.60
2022-10-22T08:34:29.466Z,127.20
2022-10-22T08:39:29.784Z,77.60
2022-10-22T08:44:28.086Z,99.90
2022-10-22T08:49:26.376Z,245.70
2022-10-22T08:54:27.693Z,119.20
2022-10-22T08:59:26.020Z,86.80
2022-10-22T09:04:25.415Z,80.50
2022-10-22T09:09:24.578Z,142.20
2022-10-22T09:14:23.897Z,95.50
2022-10-22T09:19:23.196Z,116.50
2022-10-22T09:24:22.479Z,109.30
2022-10-22T09:29:21.764Z,60.50
2022-10-22T09:34:23.089Z,104.40
2022-10-22T09:39:20.384Z,78.60
2022-10-22T09:44:20.638Z,64.50
2022-10-22T09:49:18.907Z,54.70
2022-10-22T09:54:19.191Z,31.80
2022-10-22T09:59:16.447Z,23.70
2022-10-22T10:04:17.781Z,16.50
2022-10-22T10:09:16.964Z,9.60
2022-10-22T10:14:15.158Z,6.20
2022-10-22T10:19:14.464Z,5.10
2022-10-22T10:24:14.745Z,125.60
2022-10-22T10:29:13.032Z,97.10
2022-10-22T10:34:12.351Z,65.80
2022-10-22T10:39:12.678Z,46.20
2022-10-22T10:44:11.997Z,35.80
2022-10-22T10:49:11.303Z,24.30
2022-10-22T10:54:09.590Z,13.60
2022-10-22T10:59:08.898Z,58.20
2022-10-22T11:04:09.202Z,111.70
2022-10-22T11:09:07.600Z,87.60
2022-10-22T11:14:07.750Z,44.40
2022-10-22T11:19:06.067Z,80.20
2022-10-22T11:24:05.368Z,69.50
2022-10-22T11:29:05.668Z,50.20
2022-10-22T11:34:28.463Z,12.30
2022-10-22T11:39:03.270Z,10.30
2022-10-22T11:44:03.419Z,7.10
2022-10-22T11:49:02.731Z,5.10
2022-10-22T11:54:01.028Z,3.20
2022-10-22T11:59:00.372Z,2.90
2022-10-22T12:03:59.582Z,3.40
2022-10-22T12:08:59.799Z,3.00
2022-10-22T12:13:57.983Z,3.40
2022-10-22T12:18:57.173Z,3.00
2022-10-22T12:23:57.365Z,2.20
2022-10-22T12:28:55.556Z,2.50
2022-10-22T12:33:54.745Z,2.00
2022-10-22T12:38:54.957Z,1.60
2022-10-22T12:43:53.128Z,2.10
2022-10-22T12:48:53.323Z,2.20
2022-10-22T12:53:51.505Z,2.10
2022-10-22T12:58:51.780Z,1.90
2022-10-22T13:03:49.984Z,1.30
2022-10-22T13:08:49.194Z,1.30
2022-10-22T13:13:49.427Z,1.50
2022-10-22T13:18:48.596Z,1.50
2022-10-22T13:23:46.757Z,2.50
2022-10-22T13:28:45.956Z,2.10
2022-10-22T13:33:45.110Z,1.30
2022-10-22T13:38:44.306Z,1.60
2022-10-22T13:43:43.491Z,1.60
2022-10-22T13:48:43.670Z,1.30
2022-10-22T13:53:43.851Z,0.90
2022-10-22T13:58:41.016Z,0.90
2022-10-22T14:03:40.185Z,0.60
2022-10-22T14:08:39.431Z,0.90
2022-10-22T14:13:38.615Z,1.30
2022-10-22T14:18:39.810Z,0.60
2022-10-22T14:23:37.010Z,0.60
2022-10-22T14:28:41.193Z,0.50
2022-10-22T14:33:36.530Z,0.70
2022-10-22T14:38:34.541Z,0.40
2022-10-22T14:43:34.938Z,0.40
2022-10-22T14:48:32.920Z,1.90
2022-10-22T14:53:32.131Z,3.10
2022-10-22T14:58:31.336Z,16.20
2022-10-22T15:03:30.617Z,2.10
2022-10-22T15:08:29.810Z,10.70
2022-10-22T15:13:29.995Z,2.10
2022-10-22T15:18:30.195Z,0.90
2022-10-22T15:23:28.365Z,1.10
2022-10-22T15:28:26.552Z,1.30
2022-10-22T15:33:25.746Z,2.00
2022-10-22T15:38:25.063Z,1.30
2022-10-22T15:43:25.261Z,1.00
2022-10-22T15:48:23.643Z,16.80
2022-10-22T15:53:23.661Z,69.70
2022-10-22T15:58:21.858Z,57.00
2022-10-22T16:03:21.237Z,47.20
2022-10-22T16:08:22.308Z,95.90
2022-10-22T16:13:20.474Z,106.60
2022-10-22T16:18:20.657Z,128.90
2022-10-22T16:23:19.214Z,72.90
2022-10-22T16:28:17.104Z,113.60
2022-10-22T16:33:16.297Z,175.60
2022-10-22T16:38:15.466Z,221.20
2022-10-22T16:43:14.678Z,153.90
2022-10-22T16:48:15.188Z,222.20
2022-10-22T16:53:14.040Z,206.70
2022-10-22T16:58:12.350Z,183.00
2022-10-22T17:03:12.777Z,104.50
2022-10-22T17:08:10.709Z,112.20
2022-10-22T17:13:11.309Z,143.30
2022-10-22T17:18:09.421Z,116.30
2022-10-22T17:23:09.766Z,98.10
2022-10-22T17:28:08.038Z,97.80
2022-10-22T17:33:07.132Z,147.60
2022-10-22T17:38:10.402Z,146.10
2022-10-22T17:43:05.965Z,70.70
2022-10-22T17:48:04.979Z,125.90
2022-10-22T17:53:04.959Z,115.70
2022-10-22T17:58:04.396Z,93.20
2022-10-22T18:03:03.428Z,80.80
2022-10-22T18:08:05.531Z,72.70
2022-10-22T18:13:01.224Z,48.50
2022-10-22T18:18:01.452Z,31.40
2022-10-22T18:23:00.608Z,40.60
2022-10-22T18:28:03.813Z,40.90
2022-10-22T18:32:58.208Z,34.30
2022-10-22T18:37:58.476Z,39.70
2022-10-22T18:42:56.419Z,27.20
2022-10-22T18:47:56.982Z,31.30
2022-10-22T18:52:55.208Z,28.00
2022-10-22T18:57:54.484Z,27.30
2022-10-22T19:02:55.718Z,24.90
2022-10-22T19:07:53.794Z,23.40
2022-10-22T19:12:51.959Z,19.80
2022-10-22T19:17:51.072Z,18.90
2022-10-22T19:22:52.606Z,16.00
2022-10-22T19:27:49.577Z,14.00
2022-10-22T19:32:48.767Z,15.20
2022-10-22T19:37:48.593Z,13.90
2022-10-22T19:42:48.260Z,11.60
2022-10-22T19:47:46.325Z,11.00
2022-10-22T19:52:46.743Z,11.00
2022-10-22T19:57:46.956Z,10.00
2022-10-22T20:02:45.962Z,9.20
2022-10-22T20:07:43.610Z,53.30
2022-10-22T20:12:43.735Z,146.30
2022-10-22T20:17:45.569Z,105.50
2022-10-22T20:22:42.175Z,63.30
2022-10-22T20:27:41.317Z,73.60
2022-10-22T20:32:39.839Z,55.60
2022-10-22T20:37:38.861Z,92.10
2022-10-22T20:42:38.051Z,124.80
2022-10-22T20:47:51.133Z,97.00
2022-10-22T20:52:38.801Z,68.60
2022-10-22T20:57:35.827Z,47.70
2022-10-22T21:02:35.305Z,35.90
2022-10-22T21:07:34.314Z,31.90
2022-10-22T21:12:33.503Z,21.90
2022-10-22T21:17:33.714Z,18.70
2022-10-22T21:22:31.913Z,13.10
2022-10-22T21:27:31.077Z,35.10
2022-10-22T21:32:30.286Z,67.50
2022-10-22T21:37:30.491Z,44.40
2022-10-22T21:42:28.665Z,33.70
2022-10-22T21:47:28.879Z,23.20
2022-10-22T21:52:27.031Z,16.90
2022-10-22T21:57:27.273Z,12.10
2022-10-22T22:02:25.466Z,19.90
2022-10-22T22:07:24.654Z,72.30
2022-10-22T22:12:23.843Z,57.20
2022-10-22T22:17:23.124Z,55.50
2022-10-22T22:22:22.419Z,110.40
2022-10-22T22:27:21.563Z,118.10
2022-10-22T22:32:21.761Z,78.30
2022-10-22T22:37:19.895Z,87.20
2022-10-22T22:42:19.059Z,125.10
2022-10-22T22:47:18.189Z,102.20
2022-10-22T22:52:18.393Z,106.10
2022-10-22T22:57:16.506Z,135.30
2022-10-22T23:02:16.824Z,120.60
2022-10-22T23:07:15.134Z,76.70
2022-10-22T23:12:15.278Z,62.60
2022-10-22T23:17:14.438Z,29.20
2022-10-22T23:22:14.757Z,115.60
2022-10-22T23:27:14.065Z,149.30
2022-10-22T23:32:12.392Z,109.10
2022-10-22T23:37:10.725Z,121.20
2022-10-22T23:42:10.835Z,133.20
2022-10-22T23:47:09.152Z,79.30
2022-10-22T23:52:08.484Z,47.60
2022-10-22T23:57:07.825Z,52.90
